BAW31S DGAA-EGLL
Flight info
| Callsign | BAW31S |
|---|---|
| Flight time | N/A |
| Altitude | 33000 |
| Route | LITEX1D LITEX DCT KILMO DCT TATAT DCT IPUTA DCT ABALA DCT MIGNI DCT EREBO/N0505F340 UA604 TMS UA615 GHA/N0492F350 UB726 KAHIL UZ333 ZEM/N0488F360 UB16 PECES DCT MAMOM DCT ELTAN DCT MHN DCT MEROS DCT LAPIT DCT CHELY DCT LUMAS DCT SOFFY DCT MRM DCT MTL DCT ETREK DCT MADOT DCT MOPEM DCT CACHI DCT AVLON DCT OKRIX DCT BRY DCT CLM DCT KOPOR DCT ABNUR DCT DIMAL DCT ALESO |
| Aircraft | A35K/H-SDE2E3GHIJ3J4J5LM1ORWXY/LB1D1 |
Departure
| Time | 2026-05-06 22:26 |
|---|---|
| Airport | Kotoka International Airport (DGAA) |
Arrival
| Time | N/A |
|---|---|
| Airport | London Heathrow Airport (EGLL) |
| Time | Latitude | Longitude | Altitude | Speed | Heading |
|---|---|---|---|---|---|
| 2026-05-06 22:19 | 5.60667 | -0.16871 | 227 ft | 14 kts | 24° |
| 2026-05-06 22:19 | 5.60762 | -0.16829 | 227 ft | 16 kts | 24° |
| 2026-05-06 22:19 | 5.60866 | -0.16789 | 228 ft | 16 kts | 22° |
| 2026-05-06 22:20 | 5.60974 | -0.16743 | 229 ft | 18 kts | 22° |
| 2026-05-06 22:20 | 5.61096 | -0.16694 | 227 ft | 20 kts | 21° |
| 2026-05-06 22:20 | 5.61230 | -0.16638 | 226 ft | 22 kts | 22° |
| 2026-05-06 22:20 | 5.61375 | -0.16578 | 226 ft | 24 kts | 21° |
| 2026-05-06 22:21 | 5.61539 | -0.16510 | 228 ft | 27 kts | 23° |
| 2026-05-06 22:21 | 5.61617 | -0.16447 | 225 ft | 10 kts | 76° |
| 2026-05-06 22:21 | 5.61618 | -0.16427 | 226 ft | 1 kts | 90° |
| 2026-05-06 22:21 | 5.61618 | -0.16424 | 226 ft | 0 kts | 90° |
| 2026-05-06 22:22 | 5.61618 | -0.16423 | 226 ft | 1 kts | 93° |
| 2026-05-06 22:22 | 5.61615 | -0.16409 | 225 ft | 3 kts | 100° |
| 2026-05-06 22:23 | 5.61609 | -0.16386 | 225 ft | 4 kts | 104° |
| 2026-05-06 22:23 | 5.61602 | -0.16356 | 219 ft | 5 kts | 103° |
| 2026-05-06 22:23 | 5.61607 | -0.16320 | 222 ft | 7 kts | 75° |
| 2026-05-06 22:23 | 5.61644 | -0.16266 | 222 ft | 13 kts | 34° |
| 2026-05-06 22:24 | 5.61748 | -0.16220 | 215 ft | 20 kts | 20° |
| 2026-05-06 22:24 | 5.61871 | -0.16220 | 212 ft | 11 kts | 9° |
| 2026-05-06 22:24 | 5.61885 | -0.16190 | 201 ft | 2 kts | 116° |
| 2026-05-06 22:24 | 5.61873 | -0.16181 | 211 ft | 2 kts | 149° |
| 2026-05-06 22:25 | 5.61866 | -0.16179 | 211 ft | 0 kts | 165° |
| 2026-05-06 22:25 | 5.61860 | -0.16179 | 212 ft | 2 kts | 172° |
| 2026-05-06 22:25 | 5.61835 | -0.16181 | 207 ft | 6 kts | 192° |
| 2026-05-06 22:25 | 5.61786 | -0.16201 | 211 ft | 12 kts | 202° |
| 2026-05-06 22:26 | 5.61646 | -0.16258 | 222 ft | 44 kts | 202° |
| 2026-05-06 22:26 | 5.61113 | -0.16479 | 226 ft | 121 kts | 202° |
| 2026-05-06 22:26 | 5.60111 | -0.16885 | 232 ft | 187 kts | 201° |
| 2026-05-06 22:26 | 5.58839 | -0.17421 | 845 ft | 205 kts | 202° |
| 2026-05-06 22:27 | 5.57463 | -0.17969 | 1662 ft | 223 kts | 202° |
| 2026-05-06 22:27 | 5.55831 | -0.18074 | 2336 ft | 250 kts | 166° |
| 2026-05-06 22:27 | 5.54372 | -0.17104 | 3418 ft | 260 kts | 130° |
| 2026-05-06 22:27 | 5.53672 | -0.15418 | 4448 ft | 269 kts | 96° |
| 2026-05-06 22:28 | 5.53974 | -0.13565 | 5268 ft | 285 kts | 66° |
| 2026-05-06 22:28 | 5.55042 | -0.11797 | 5771 ft | 309 kts | 59° |
| 2026-05-06 22:28 | 5.56284 | -0.09907 | 5932 ft | 342 kts | 49° |
| 2026-05-06 22:28 | 5.58187 | -0.08281 | 5944 ft | 378 kts | 32° |
| 2026-05-06 22:29 | 5.60635 | -0.07213 | 6313 ft | 383 kts | 20° |
| 2026-05-06 22:29 | 5.63124 | -0.06352 | 7277 ft | 374 kts | 21° |
| 2026-05-06 22:29 | 5.65529 | -0.05475 | 8633 ft | 361 kts | 22° |
| 2026-05-06 22:29 | 5.67837 | -0.04593 | 9965 ft | 348 kts | 24° |
| 2026-05-06 22:30 | 5.70085 | -0.03706 | 10839 ft | 349 kts | 25° |
| 2026-05-06 22:30 | 5.72390 | -0.02776 | 11184 ft | 364 kts | 25° |
| 2026-05-06 22:30 | 5.74788 | -0.01797 | 11488 ft | 378 kts | 25° |
| 2026-05-06 22:30 | 5.77248 | -0.00791 | 11981 ft | 385 kts | 25° |
| 2026-05-06 22:31 | 5.79743 | 0.00234 | 12495 ft | 390 kts | 25° |
| 2026-05-06 22:31 | 5.82266 | 0.01271 | 13067 ft | 393 kts | 25° |
| 2026-05-06 22:31 | 5.84812 | 0.02319 | 13622 ft | 397 kts | 25° |
| 2026-05-06 22:31 | 5.87350 | 0.03364 | 14101 ft | 401 kts | 25° |
| 2026-05-06 22:32 | 5.89956 | 0.04435 | 14544 ft | 406 kts | 25° |
| 2026-05-06 22:32 | 5.92635 | 0.05378 | 14994 ft | 413 kts | 16° |
| 2026-05-06 22:32 | 5.95507 | 0.05746 | 15445 ft | 421 kts | 1° |
| 2026-05-06 22:32 | 5.98432 | 0.05380 | 15915 ft | 427 kts | 349° |
| 2026-05-06 22:33 | 6.01339 | 0.04692 | 16385 ft | 431 kts | 347° |
| 2026-05-06 22:33 | 6.04268 | 0.03957 | 16852 ft | 434 kts | 347° |
| 2026-05-06 22:33 | 6.07215 | 0.03221 | 17294 ft | 438 kts | 347° |
| 2026-05-06 22:33 | 6.10185 | 0.02487 | 17713 ft | 441 kts | 347° |
| 2026-05-06 22:34 | 6.13183 | 0.01751 | 18130 ft | 445 kts | 347° |
| 2026-05-06 22:34 | 6.16198 | 0.01013 | 18499 ft | 447 kts | 347° |
| 2026-05-06 22:34 | 6.19191 | 0.00282 | 18834 ft | 450 kts | 347° |
| 2026-05-06 22:34 | 6.22243 | -0.00462 | 19185 ft | 452 kts | 347° |
| 2026-05-06 22:35 | 6.25314 | -0.01211 | 19541 ft | 454 kts | 347° |
| 2026-05-06 22:35 | 6.28387 | -0.01962 | 19850 ft | 456 kts | 347° |
| 2026-05-06 22:35 | 6.31479 | -0.02716 | 20143 ft | 458 kts | 347° |
| 2026-05-06 22:35 | 6.34584 | -0.03473 | 20419 ft | 460 kts | 347° |
| 2026-05-06 22:36 | 6.37707 | -0.04234 | 20700 ft | 462 kts | 347° |
| 2026-05-06 22:36 | 6.40842 | -0.04999 | 20994 ft | 465 kts | 347° |
| 2026-05-06 22:36 | 6.43989 | -0.05766 | 21274 ft | 467 kts | 347° |
| 2026-05-06 22:36 | 6.47156 | -0.06539 | 21554 ft | 469 kts | 348° |
| 2026-05-06 22:37 | 6.50342 | -0.07316 | 21803 ft | 472 kts | 348° |
| 2026-05-06 22:37 | 6.53541 | -0.08097 | 22074 ft | 474 kts | 348° |
| 2026-05-06 22:37 | 6.56760 | -0.08882 | 22359 ft | 476 kts | 348° |
| 2026-05-06 22:37 | 6.59975 | -0.09522 | 22616 ft | 477 kts | 354° |
| 2026-05-06 22:38 | 6.63285 | -0.09684 | 22884 ft | 477 kts | 4° |
| 2026-05-06 22:38 | 6.66570 | -0.09257 | 23148 ft | 476 kts | 15° |
| 2026-05-06 22:38 | 6.69745 | -0.08324 | 23418 ft | 476 kts | 20° |
| 2026-05-06 22:38 | 6.72872 | -0.07200 | 23663 ft | 478 kts | 22° |
| 2026-05-06 22:39 | 6.75978 | -0.05992 | 23901 ft | 479 kts | 23° |
| 2026-05-06 22:39 | 6.79121 | -0.04735 | 24171 ft | 480 kts | 24° |
| 2026-05-06 22:39 | 6.82191 | -0.03506 | 24419 ft | 482 kts | 23° |
| 2026-05-06 22:39 | 6.85311 | -0.02268 | 24672 ft | 483 kts | 23° |
| 2026-05-06 22:40 | 6.88442 | -0.01039 | 24986 ft | 483 kts | 23° |
| 2026-05-06 22:40 | 6.91579 | 0.00182 | 25250 ft | 485 kts | 23° |
| 2026-05-06 22:40 | 6.94739 | 0.01406 | 25491 ft | 487 kts | 23° |
| 2026-05-06 22:40 | 6.97911 | 0.02630 | 25761 ft | 489 kts | 23° |
| 2026-05-06 22:41 | 7.04290 | 0.05092 | 26349 ft | 492 kts | 23° |
| 2026-05-06 22:41 | 7.07494 | 0.06329 | 26648 ft | 494 kts | 23° |
| 2026-05-06 22:41 | 7.10711 | 0.07572 | 26931 ft | 495 kts | 23° |
| 2026-05-06 22:42 | 7.13933 | 0.08818 | 27226 ft | 497 kts | 23° |
| 2026-05-06 22:42 | 7.17172 | 0.10070 | 27513 ft | 499 kts | 23° |
| 2026-05-06 22:42 | 7.20417 | 0.11325 | 27761 ft | 502 kts | 22° |
| 2026-05-06 22:42 | 7.23683 | 0.12589 | 28067 ft | 502 kts | 22° |
| 2026-05-06 22:43 | 7.26897 | 0.13832 | 28556 ft | 499 kts | 22° |
| 2026-05-06 22:43 | 7.30124 | 0.15079 | 29065 ft | 495 kts | 22° |
| 2026-05-06 22:43 | 7.33327 | 0.16318 | 29589 ft | 491 kts | 22° |
| 2026-05-06 22:43 | 7.36518 | 0.17552 | 30099 ft | 487 kts | 22° |
| 2026-05-06 22:44 | 7.39665 | 0.18770 | 30542 ft | 482 kts | 22° |
| 2026-05-06 22:44 | 7.42792 | 0.19980 | 30994 ft | 478 kts | 22° |
| 2026-05-06 22:44 | 7.45888 | 0.21179 | 31455 ft | 473 kts | 22° |
| 2026-05-06 22:44 | 7.48954 | 0.22367 | 31706 ft | 474 kts | 22° |
| 2026-05-06 22:45 | 7.52012 | 0.23553 | 31726 ft | 480 kts | 22° |
| 2026-05-06 22:45 | 7.55125 | 0.24760 | 32026 ft | 478 kts | 22° |
| 2026-05-06 22:45 | 7.58208 | 0.25954 | 32491 ft | 472 kts | 22° |
| 2026-05-06 22:45 | 7.61264 | 0.27138 | 32825 ft | 470 kts | 22° |
| 2026-05-06 22:46 | 7.64329 | 0.28327 | 32902 ft | 474 kts | 22° |
| 2026-05-06 22:46 | 7.70555 | 0.30742 | 32928 ft | 484 kts | 22° |
| 2026-05-06 22:47 | 7.76924 | 0.33212 | 32924 ft | 495 kts | 22° |
| 2026-05-06 22:47 | 7.83386 | 0.35719 | 32911 ft | 504 kts | 22° |
| 2026-05-06 22:48 | 7.90002 | 0.38286 | 32907 ft | 513 kts | 22° |
| 2026-05-06 22:48 | 7.96707 | 0.40888 | 32923 ft | 519 kts | 22° |
| 2026-05-06 22:49 | 8.03481 | 0.43518 | 32909 ft | 524 kts | 21° |
| 2026-05-06 22:49 | 8.10305 | 0.46168 | 32920 ft | 526 kts | 21° |
| 2026-05-06 22:50 | 8.17144 | 0.48825 | 32919 ft | 526 kts | 21° |
| 2026-05-06 22:50 | 8.23939 | 0.51466 | 32926 ft | 527 kts | 21° |
| 2026-05-06 22:51 | 8.30785 | 0.54129 | 32910 ft | 527 kts | 21° |
| 2026-05-06 22:51 | 8.36481 | 0.56345 | 32911 ft | 527 kts | 21° |
| 2026-05-06 22:52 | 8.43336 | 0.59013 | 32925 ft | 529 kts | 21° |
| 2026-05-06 22:52 | 8.50209 | 0.61688 | 32917 ft | 529 kts | 21° |
| 2026-05-06 22:53 | 8.57077 | 0.64363 | 32917 ft | 529 kts | 21° |
| 2026-05-06 22:53 | 8.63953 | 0.67042 | 32933 ft | 529 kts | 21° |
| 2026-05-06 22:54 | 8.70835 | 0.69725 | 32910 ft | 529 kts | 21° |
| 2026-05-06 22:54 | 8.77718 | 0.72409 | 32912 ft | 530 kts | 21° |
| 2026-05-06 22:55 | 8.84604 | 0.75095 | 32910 ft | 530 kts | 21° |
| 2026-05-06 22:55 | 8.91448 | 0.77766 | 32922 ft | 530 kts | 21° |
| 2026-05-06 22:56 | 8.98343 | 0.80457 | 32914 ft | 530 kts | 21° |
| 2026-05-06 22:56 | 9.05227 | 0.83146 | 32914 ft | 530 kts | 21° |
| 2026-05-06 22:57 | 9.12115 | 0.85838 | 32912 ft | 531 kts | 21° |
| 2026-05-06 22:57 | 9.19022 | 0.88537 | 32914 ft | 531 kts | 21° |
| 2026-05-06 22:58 | 9.25876 | 0.91217 | 32913 ft | 532 kts | 22° |
| 2026-05-06 22:58 | 9.32795 | 0.93924 | 32919 ft | 532 kts | 22° |
| 2026-05-06 22:59 | 9.39704 | 0.96628 | 32928 ft | 532 kts | 21° |
| 2026-05-06 22:59 | 9.46481 | 0.99604 | 32944 ft | 529 kts | 33° |
| 2026-05-06 23:00 | 9.52386 | 1.04000 | 32910 ft | 531 kts | 39° |
| 2026-05-06 23:00 | 9.58051 | 1.08820 | 32927 ft | 532 kts | 40° |
| 2026-05-06 23:01 | 9.63725 | 1.13661 | 32914 ft | 533 kts | 40° |
| 2026-05-06 23:01 | 9.69435 | 1.18442 | 32901 ft | 532 kts | 39° |
| 2026-05-06 23:02 | 9.75155 | 1.23189 | 32925 ft | 531 kts | 39° |
| 2026-05-06 23:02 | 9.80882 | 1.27935 | 32911 ft | 531 kts | 39° |
| 2026-05-06 23:03 | 9.86596 | 1.32676 | 32910 ft | 531 kts | 40° |
| 2026-05-06 23:03 | 9.92321 | 1.37432 | 32907 ft | 532 kts | 40° |
| 2026-05-06 23:04 | 9.98052 | 1.42196 | 32912 ft | 532 kts | 40° |
| 2026-05-06 23:04 | 10.03747 | 1.46931 | 32915 ft | 532 kts | 40° |
| 2026-05-06 23:05 | 10.09476 | 1.51698 | 32915 ft | 532 kts | 40° |
| 2026-05-06 23:05 | 10.15199 | 1.56461 | 32915 ft | 532 kts | 40° |
| 2026-05-06 23:06 | 10.20917 | 1.61223 | 32911 ft | 531 kts | 40° |
| 2026-05-06 23:06 | 10.26638 | 1.65989 | 32915 ft | 532 kts | 40° |
| 2026-05-06 23:07 | 10.32364 | 1.70762 | 32914 ft | 532 kts | 40° |
| 2026-05-06 23:07 | 10.38090 | 1.75536 | 32916 ft | 532 kts | 40° |
| 2026-05-06 23:08 | 10.43777 | 1.80281 | 32910 ft | 532 kts | 40° |
| 2026-05-06 23:08 | 10.49507 | 1.85064 | 32909 ft | 532 kts | 40° |
| 2026-05-06 23:09 | 10.55229 | 1.89843 | 32909 ft | 532 kts | 40° |
| 2026-05-06 23:09 | 10.60946 | 1.94621 | 32903 ft | 532 kts | 39° |
| 2026-05-06 23:10 | 10.66655 | 1.99393 | 32899 ft | 531 kts | 39° |
| 2026-05-06 23:10 | 10.72360 | 2.04165 | 32894 ft | 531 kts | 39° |
| 2026-05-06 23:11 | 10.78066 | 2.08939 | 32897 ft | 531 kts | 39° |
| 2026-05-06 23:11 | 10.83771 | 2.13716 | 32897 ft | 531 kts | 39° |
| 2026-05-06 23:12 | 10.89478 | 2.18496 | 32880 ft | 531 kts | 39° |
| 2026-05-06 23:12 | 10.95141 | 2.23242 | 32882 ft | 531 kts | 39° |
| 2026-05-06 23:13 | 11.01106 | 2.27639 | 32877 ft | 530 kts | 27° |
| 2026-05-06 23:13 | 11.07753 | 2.30927 | 32873 ft | 531 kts | 24° |
| 2026-05-06 23:14 | 11.14516 | 2.34001 | 32876 ft | 532 kts | 23° |
| 2026-05-06 23:14 | 11.21249 | 2.37029 | 32873 ft | 532 kts | 24° |
| 2026-05-06 23:15 | 11.28016 | 2.40098 | 32873 ft | 532 kts | 24° |
| 2026-05-06 23:15 | 11.34777 | 2.43183 | 32872 ft | 531 kts | 23° |
| 2026-05-06 23:16 | 11.41512 | 2.46262 | 32870 ft | 530 kts | 23° |
| 2026-05-06 23:16 | 11.48230 | 2.49334 | 32862 ft | 529 kts | 23° |
| 2026-05-06 23:17 | 11.54951 | 2.52408 | 32863 ft | 529 kts | 24° |
| 2026-05-06 23:17 | 11.61670 | 2.55482 | 32857 ft | 529 kts | 24° |
| 2026-05-06 23:18 | 11.68344 | 2.58539 | 32859 ft | 529 kts | 23° |
| 2026-05-06 23:18 | 11.75074 | 2.61622 | 32848 ft | 530 kts | 23° |
| 2026-05-06 23:19 | 11.81804 | 2.64707 | 32845 ft | 530 kts | 23° |
| 2026-05-06 23:19 | 11.88543 | 2.67797 | 32846 ft | 530 kts | 23° |
| 2026-05-06 23:20 | 11.95275 | 2.70887 | 32848 ft | 530 kts | 23° |
| 2026-05-06 23:20 | 12.02005 | 2.73976 | 32843 ft | 530 kts | 23° |
| 2026-05-06 23:21 | 12.08698 | 2.77050 | 32838 ft | 530 kts | 23° |
| 2026-05-06 23:21 | 12.15425 | 2.80142 | 32840 ft | 530 kts | 23° |
| 2026-05-06 23:22 | 12.22157 | 2.83238 | 32837 ft | 531 kts | 23° |
| 2026-05-06 23:22 | 12.28894 | 2.86338 | 32832 ft | 531 kts | 23° |
| 2026-05-06 23:23 | 12.35632 | 2.89440 | 32826 ft | 531 kts | 23° |
| 2026-05-06 23:23 | 12.42362 | 2.92540 | 32827 ft | 530 kts | 23° |
| 2026-05-06 23:24 | 12.49085 | 2.95638 | 32824 ft | 529 kts | 23° |
| 2026-05-06 23:24 | 12.55802 | 2.98735 | 32824 ft | 529 kts | 23° |
| 2026-05-06 23:25 | 12.62472 | 3.01813 | 32824 ft | 529 kts | 23° |
| 2026-05-06 23:25 | 12.69192 | 3.04916 | 32823 ft | 529 kts | 23° |
| 2026-05-06 23:26 | 12.75906 | 3.08018 | 32824 ft | 529 kts | 23° |
| 2026-05-06 23:26 | 12.82616 | 3.11120 | 32820 ft | 529 kts | 23° |
| 2026-05-06 23:27 | 12.89329 | 3.14224 | 32820 ft | 529 kts | 23° |
| 2026-05-06 23:27 | 12.96031 | 3.17326 | 32821 ft | 529 kts | 23° |
| 2026-05-06 23:28 | 13.02701 | 3.20414 | 32817 ft | 529 kts | 23° |
| 2026-05-06 23:28 | 13.09413 | 3.23524 | 32818 ft | 529 kts | 23° |
| 2026-05-06 23:29 | 13.16131 | 3.26639 | 32818 ft | 530 kts | 22° |
| 2026-05-06 23:29 | 13.22860 | 3.29760 | 32813 ft | 531 kts | 22° |
| 2026-05-06 23:30 | 13.29600 | 3.32888 | 32815 ft | 531 kts | 22° |
| 2026-05-06 23:30 | 13.36337 | 3.36017 | 32812 ft | 531 kts | 22° |
| 2026-05-06 23:31 | 13.43032 | 3.39129 | 32810 ft | 531 kts | 22° |
| 2026-05-06 23:31 | 13.49775 | 3.42265 | 32809 ft | 531 kts | 22° |
| 2026-05-06 23:32 | 13.56524 | 3.45403 | 32809 ft | 532 kts | 22° |
| 2026-05-06 23:32 | 13.63299 | 3.48465 | 32804 ft | 532 kts | 21° |
| 2026-05-06 23:33 | 13.70096 | 3.51494 | 32804 ft | 532 kts | 21° |
| 2026-05-06 23:33 | 13.76853 | 3.54518 | 32799 ft | 532 kts | 21° |
| 2026-05-06 23:34 | 13.83633 | 3.57565 | 32805 ft | 532 kts | 21° |
| 2026-05-06 23:34 | 13.90432 | 3.60628 | 32792 ft | 533 kts | 21° |
| 2026-05-06 23:35 | 13.97236 | 3.63694 | 32794 ft | 534 kts | 21° |
| 2026-05-06 23:35 | 14.04037 | 3.66761 | 32796 ft | 534 kts | 21° |
| 2026-05-06 23:36 | 14.10840 | 3.69830 | 32790 ft | 534 kts | 21° |
| 2026-05-06 23:36 | 14.17648 | 3.72904 | 32790 ft | 534 kts | 21° |
| 2026-05-06 23:37 | 14.24413 | 3.75960 | 32788 ft | 535 kts | 21° |
| 2026-05-06 23:37 | 14.31234 | 3.79043 | 32788 ft | 535 kts | 21° |
| 2026-05-06 23:38 | 14.38054 | 3.82128 | 32787 ft | 535 kts | 21° |
| 2026-05-06 23:38 | 14.44869 | 3.85213 | 32788 ft | 534 kts | 21° |
| 2026-05-06 23:39 | 14.50523 | 3.87774 | 32785 ft | 534 kts | 21° |
| 2026-05-06 23:39 | 14.58478 | 3.91380 | 32785 ft | 534 kts | 21° |
| 2026-05-06 23:40 | 14.65284 | 3.94467 | 32779 ft | 534 kts | 21° |
| 2026-05-06 23:40 | 14.70933 | 3.97031 | 32779 ft | 534 kts | 21° |
| 2026-05-06 23:41 | 14.77737 | 4.00121 | 32780 ft | 534 kts | 21° |
| 2026-05-06 23:41 | 14.85649 | 4.03716 | 32779 ft | 534 kts | 21° |
| 2026-05-06 23:42 | 14.91353 | 4.06311 | 32778 ft | 534 kts | 21° |
| 2026-05-06 23:42 | 14.98113 | 4.09387 | 32777 ft | 534 kts | 21° |
| 2026-05-06 23:43 | 15.04922 | 4.12488 | 32778 ft | 534 kts | 21° |
| 2026-05-06 23:43 | 15.11736 | 4.15593 | 32780 ft | 534 kts | 21° |
| 2026-05-06 23:44 | 15.18545 | 4.18698 | 32778 ft | 534 kts | 21° |
| 2026-05-06 23:44 | 15.25356 | 4.21807 | 32782 ft | 534 kts | 21° |
| 2026-05-06 23:45 | 15.32159 | 4.24914 | 32775 ft | 534 kts | 21° |
| 2026-05-06 23:45 | 15.38957 | 4.28020 | 32777 ft | 534 kts | 21° |
| 2026-05-06 23:46 | 15.45771 | 4.31136 | 32778 ft | 534 kts | 21° |
| 2026-05-06 23:46 | 15.52532 | 4.34231 | 32777 ft | 534 kts | 21° |
| 2026-05-06 23:47 | 15.59343 | 4.37350 | 32777 ft | 534 kts | 21° |
| 2026-05-06 23:47 | 15.66164 | 4.40477 | 32774 ft | 535 kts | 21° |
| 2026-05-06 23:48 | 15.72974 | 4.43600 | 32774 ft | 535 kts | 21° |
| 2026-05-06 23:48 | 15.79784 | 4.46726 | 32777 ft | 535 kts | 21° |
| 2026-05-06 23:49 | 15.86598 | 4.49856 | 32779 ft | 535 kts | 21° |
| 2026-05-06 23:49 | 15.93408 | 4.52987 | 32774 ft | 535 kts | 21° |
| 2026-05-06 23:50 | 16.00189 | 4.56106 | 32775 ft | 536 kts | 20° |
| 2026-05-06 23:50 | 16.10148 | 4.61477 | 32775 ft | 539 kts | 27° |
| 2026-05-06 23:51 | 16.16555 | 4.65421 | 32775 ft | 539 kts | 28° |
| 2026-05-06 23:51 | 16.22991 | 4.69429 | 32775 ft | 539 kts | 28° |
| 2026-05-06 23:52 | 16.29434 | 4.73434 | 32773 ft | 539 kts | 27° |
| 2026-05-06 23:52 | 16.35887 | 4.77437 | 32776 ft | 539 kts | 27° |
| 2026-05-06 23:53 | 16.42351 | 4.81445 | 32774 ft | 540 kts | 27° |
| 2026-05-06 23:53 | 16.48766 | 4.85427 | 32777 ft | 540 kts | 27° |
| 2026-05-06 23:54 | 16.55227 | 4.89441 | 32773 ft | 540 kts | 27° |
| 2026-05-06 23:54 | 16.61682 | 4.93454 | 32773 ft | 540 kts | 27° |
| 2026-05-06 23:55 | 16.68136 | 4.97471 | 32773 ft | 541 kts | 27° |
| 2026-05-06 23:55 | 16.74603 | 5.01499 | 32772 ft | 541 kts | 27° |
| 2026-05-06 23:56 | 16.81028 | 5.05503 | 32774 ft | 540 kts | 27° |